createdAt,value
2023-03-28T00:00:50.852Z,99.90
2023-03-28T00:03:22.324Z,99.90
2023-03-28T00:05:50.225Z,99.90
2023-03-28T00:08:18.181Z,99.90
2023-03-28T00:10:45.273Z,99.90
2023-03-28T00:13:14.140Z,99.90
2023-03-28T00:15:42.599Z,99.90
2023-03-28T00:18:11.576Z,99.90
2023-03-28T00:20:43.673Z,99.90
2023-03-28T00:23:11.986Z,99.90
2023-03-28T00:25:43.336Z,99.90
2023-03-28T00:28:10.053Z,99.90
2023-03-28T00:30:36.949Z,99.90
2023-03-28T00:33:05.675Z,99.90
2023-03-28T00:35:33.002Z,99.90
2023-03-28T00:37:59.591Z,99.90
2023-03-28T00:40:26.954Z,99.90
2023-03-28T00:42:54.005Z,99.90
2023-03-28T00:45:23.888Z,99.90
2023-03-28T00:47:54.666Z,99.90
2023-03-28T00:50:30.781Z,99.90
2023-03-28T00:53:09.698Z,99.90
2023-03-28T00:55:40.755Z,99.90
2023-03-28T00:58:11.418Z,99.90
2023-03-28T01:00:41.343Z,99.90
2023-03-28T01:03:08.916Z,99.90
2023-03-28T01:09:24.485Z,99.90
2023-03-28T01:11:53.614Z,99.90
2023-03-28T01:14:23.199Z,99.90
2023-03-28T01:16:51.112Z,99.90
2023-03-28T01:19:33.834Z,99.90
2023-03-28T01:22:29.203Z,99.90
2023-03-28T01:25:10.757Z,99.90
2023-03-28T01:27:46.787Z,99.90
2023-03-28T01:30:22.553Z,99.90
2023-03-28T01:33:18.897Z,99.90
2023-03-28T01:35:48.178Z,99.90
2023-03-28T01:38:24.768Z,99.90
2023-03-28T01:41:02.380Z,99.90
2023-03-28T01:44:00.265Z,99.90
2023-03-28T01:46:39.164Z,99.90
2023-03-28T01:49:33.394Z,99.90
2023-03-28T01:52:17.650Z,99.90
2023-03-28T01:54:56.533Z,99.90
2023-03-28T01:57:28.753Z,99.90
2023-03-28T02:00:15.492Z,99.90
2023-03-28T02:02:49.401Z,99.90
2023-03-28T02:05:19.477Z,99.90
2023-03-28T02:07:48.790Z,99.90
2023-03-28T02:10:19.397Z,99.90
2023-03-28T02:12:52.130Z,99.90
2023-03-28T02:15:22.114Z,99.90
2023-03-28T02:17:54.109Z,99.90
2023-03-28T02:20:24.669Z,99.90
2023-03-28T02:23:00.746Z,99.90
2023-03-28T02:25:27.513Z,99.90
2023-03-28T02:27:58.909Z,99.90
2023-03-28T02:30:27.190Z,99.90
2023-03-28T02:33:02.672Z,99.90
2023-03-28T02:35:56.688Z,99.90
2023-03-28T02:38:54.427Z,99.90
2023-03-28T02:41:55.750Z,99.90
2023-03-28T02:44:47.187Z,99.90
2023-03-28T02:47:28.628Z,99.90
2023-03-28T02:50:30.245Z,99.90
2023-03-28T02:53:27.093Z,99.90
2023-03-28T02:55:56.873Z,99.90
2023-03-28T02:58:42.268Z,99.90
2023-03-28T03:01:10.543Z,99.90
2023-03-28T03:03:37.666Z,99.90
2023-03-28T03:06:05.767Z,99.90
2023-03-28T03:08:32.729Z,99.90
2023-03-28T03:10:59.588Z,99.90
2023-03-28T03:13:26.164Z,99.90
2023-03-28T03:15:54.407Z,99.90
2023-03-28T03:18:21.444Z,99.90
2023-03-28T03:20:50.225Z,99.90
2023-03-28T03:23:16.949Z,99.90
2023-03-28T03:25:43.568Z,99.90
2023-03-28T03:28:10.743Z,99.90
2023-03-28T03:30:37.319Z,99.90
2023-03-28T03:33:05.428Z,99.90
2023-03-28T03:35:35.451Z,99.90
2023-03-28T03:38:02.967Z,99.90
2023-03-28T03:40:29.672Z,99.90
2023-03-28T03:42:56.298Z,99.90
2023-03-28T03:45:22.835Z,99.90
2023-03-28T03:47:49.383Z,99.90
2023-03-28T03:50:16.033Z,99.90
2023-03-28T03:52:42.661Z,99.90
2023-03-28T03:55:09.572Z,99.90
2023-03-28T03:57:36.634Z,99.90
2023-03-28T04:00:11.897Z,99.90
2023-03-28T04:02:39.539Z,99.90
2023-03-28T04:05:08.443Z,99.90
2023-03-28T04:07:35.668Z,99.90
2023-03-28T04:10:02.959Z,99.90
2023-03-28T04:12:29.618Z,99.90
2023-03-28T04:14:56.467Z,99.90
2023-03-28T04:17:23.385Z,99.90
2023-03-28T04:19:50.161Z,99.90
2023-03-28T04:22:18.279Z,99.90
2023-03-28T04:24:45.724Z,99.90
2023-03-28T04:27:12.416Z,99.90
2023-03-28T04:29:39.247Z,99.90
2023-03-28T04:32:06.186Z,99.90
2023-03-28T04:34:33.803Z,99.90
2023-03-28T04:37:02.329Z,99.90
2023-03-28T04:39:35.541Z,99.90
2023-03-28T04:42:05.183Z,99.90
2023-03-28T04:44:32.204Z,99.90
2023-03-28T04:46:59.557Z,99.90
2023-03-28T04:49:26.692Z,99.90
2023-03-28T04:51:53.424Z,99.90
2023-03-28T04:54:20.384Z,99.90
2023-03-28T04:56:50.440Z,99.90
2023-03-28T04:59:17.790Z,99.90
2023-03-28T05:01:50.833Z,99.90
2023-03-28T05:04:18.960Z,99.90
2023-03-28T05:06:46.778Z,99.90
2023-03-28T05:09:14.208Z,99.90
2023-03-28T05:11:41.206Z,99.90
2023-03-28T05:14:08.392Z,99.90
2023-03-28T05:16:35.349Z,99.90
2023-03-28T05:19:02.319Z,99.90
2023-03-28T05:21:29.079Z,99.90
2023-03-28T05:23:56.176Z,99.90
2023-03-28T05:26:22.788Z,99.90
2023-03-28T05:28:49.585Z,99.90
2023-03-28T05:31:17.190Z,99.90
2023-03-28T05:33:43.897Z,99.90
2023-03-28T05:36:11.328Z,99.90
2023-03-28T05:38:38.241Z,99.90
2023-03-28T05:41:05.184Z,99.90
2023-03-28T05:43:31.922Z,99.90
2023-03-28T05:45:58.596Z,99.90
2023-03-28T05:48:25.395Z,99.90
2023-03-28T05:50:52.001Z,99.90
2023-03-28T05:53:18.679Z,99.90
2023-03-28T05:55:45.786Z,99.90
2023-03-28T05:58:13.483Z,99.90
2023-03-28T06:00:41.853Z,99.90
2023-03-28T06:03:09.409Z,99.90
2023-03-28T06:05:43.399Z,99.90
2023-03-28T06:08:10.006Z,99.90
2023-03-28T06:10:36.754Z,99.90
2023-03-28T06:13:03.332Z,99.90
2023-03-28T06:15:30.119Z,99.90
2023-03-28T06:17:57.874Z,99.90
2023-03-28T06:20:24.683Z,99.90
2023-03-28T06:22:51.312Z,99.90
2023-03-28T06:25:17.927Z,99.90
2023-03-28T06:27:44.452Z,99.90
2023-03-28T06:30:11.711Z,99.90
2023-03-28T06:32:38.410Z,99.90
2023-03-28T06:35:05.517Z,99.90
2023-03-28T06:37:32.010Z,99.90
2023-03-28T06:39:58.546Z,99.90
2023-03-28T06:42:25.150Z,99.90
2023-03-28T06:44:52.609Z,99.90
2023-03-28T06:47:19.197Z,99.90
2023-03-28T06:49:45.769Z,99.90
2023-03-28T06:52:12.388Z,99.90
2023-03-28T06:54:38.900Z,99.90
2023-03-28T06:57:05.625Z,99.90
2023-03-28T06:59:32.244Z,99.90
2023-03-28T07:01:58.944Z,99.90
2023-03-28T07:04:25.614Z,99.90
2023-03-28T07:06:52.201Z,99.90
2023-03-28T07:09:18.823Z,99.90
2023-03-28T07:11:45.533Z,99.90
2023-03-28T07:14:12.156Z,99.90
2023-03-28T07:16:38.820Z,99.90
2023-03-28T07:19:05.503Z,99.90
2023-03-28T07:21:32.122Z,99.90
2023-03-28T07:23:58.686Z,99.90
2023-03-28T07:26:26.894Z,99.90
2023-03-28T07:28:55.007Z,99.90
2023-03-28T07:31:21.850Z,99.90
2023-03-28T07:33:51.214Z,99.90
2023-03-28T07:36:21.401Z,99.90
2023-03-28T07:38:49.452Z,99.90
2023-03-28T07:41:16.494Z,99.90
2023-03-28T07:43:43.224Z,99.90
2023-03-28T07:46:13.809Z,99.90
2023-03-28T07:48:41.118Z,99.90
2023-03-28T07:51:09.876Z,99.90
2023-03-28T07:53:37.831Z,99.90
2023-03-28T07:56:05.791Z,99.90
2023-03-28T07:58:32.365Z,99.90
2023-03-28T08:01:06.067Z,99.90
2023-03-28T08:03:33.058Z,99.90
2023-03-28T08:06:09.254Z,99.90
2023-03-28T08:08:40.349Z,99.90
2023-03-28T08:11:07.711Z,99.90
2023-03-28T08:13:34.427Z,99.90
2023-03-28T08:16:01.204Z,99.90
2023-03-28T08:18:27.871Z,99.90
2023-03-28T08:21:01.597Z,99.90
2023-03-28T08:23:28.914Z,99.90
2023-03-28T08:26:07.257Z,99.90
2023-03-28T08:28:35.624Z,99.90
2023-03-28T08:31:09.435Z,99.90
2023-03-28T08:33:36.155Z,99.90
2023-03-28T08:36:02.845Z,99.90
2023-03-28T08:38:29.567Z,99.90
2023-03-28T08:41:07.685Z,99.90
2023-03-28T08:43:54.335Z,99.90
2023-03-28T08:46:24.083Z,99.90
2023-03-28T08:48:52.776Z,99.90
2023-03-28T08:51:32.228Z,99.90
2023-03-28T08:54:23.005Z,99.90
2023-03-28T08:56:55.724Z,99.90
2023-03-28T08:59:40.962Z,99.90
2023-03-28T09:02:22.264Z,99.90
2023-03-28T09:04:50.443Z,99.90
2023-03-28T09:07:39.938Z,99.90
2023-03-28T09:10:24.298Z,99.90
2023-03-28T09:13:02.516Z,99.90
2023-03-28T09:16:06.778Z,99.90
2023-03-28T09:19:10.688Z,99.90
2023-03-28T09:22:15.843Z,99.90
2023-03-28T09:25:11.399Z,99.90
2023-03-28T09:28:02.532Z,99.90
2023-03-28T09:30:33.559Z,99.80
2023-03-28T09:33:05.664Z,99.90
2023-03-28T09:35:34.184Z,99.90
2023-03-28T09:38:09.839Z,99.90
2023-03-28T09:40:42.453Z,99.90
2023-03-28T09:43:14.733Z,99.90
2023-03-28T09:45:54.148Z,99.90
2023-03-28T09:48:25.220Z,98.80
2023-03-28T09:50:55.048Z,99.00
2023-03-28T09:53:29.131Z,97.10
2023-03-28T09:56:05.260Z,94.70
2023-03-28T09:58:51.267Z,95.20
2023-03-28T10:01:45.304Z,91.30
2023-03-28T10:04:13.864Z,91.50
2023-03-28T10:06:42.091Z,92.60
2023-03-28T10:09:18.849Z,92.10
2023-03-28T10:11:50.374Z,92.90
2023-03-28T10:14:36.744Z,92.60
2023-03-28T10:17:12.121Z,94.10
2023-03-28T10:19:42.947Z,91.80
2023-03-28T10:22:16.840Z,92.60
2023-03-28T10:24:47.200Z,91.30
2023-03-28T10:27:35.200Z,87.50
2023-03-28T10:30:29.754Z,90.00
2023-03-28T10:33:16.123Z,88.40
2023-03-28T10:35:48.508Z,84.10
2023-03-28T10:38:18.013Z,87.00
2023-03-28T10:40:53.386Z,85.30
2023-03-28T10:43:20.045Z,85.80
2023-03-28T10:45:51.553Z,84.50
2023-03-28T10:48:25.756Z,84.80
2023-03-28T10:50:58.391Z,86.40
2023-03-28T10:53:41.373Z,90.00
2023-03-28T10:56:28.009Z,90.10
2023-03-28T10:59:28.965Z,90.40
2023-03-28T11:02:37.486Z,91.20
2023-03-28T11:05:21.474Z,91.30
2023-03-28T11:08:27.464Z,90.90
2023-03-28T11:11:07.581Z,89.40
2023-03-28T11:13:42.315Z,88.50
2023-03-28T11:16:26.803Z,88.90
2023-03-28T11:18:56.307Z,87.20
2023-03-28T11:21:47.365Z,87.90
2023-03-28T11:24:22.815Z,87.60
2023-03-28T11:27:15.580Z,89.50
2023-03-28T11:30:12.015Z,86.00
2023-03-28T11:33:14.027Z,87.90
2023-03-28T11:35:54.785Z,89.20
2023-03-28T11:38:31.351Z,90.90
2023-03-28T11:41:22.601Z,90.30
2023-03-28T11:44:10.330Z,91.60
2023-03-28T11:46:43.270Z,91.20
2023-03-28T11:49:17.195Z,91.60
2023-03-28T11:52:07.061Z,92.40
2023-03-28T11:55:01.981Z,91.80
2023-03-28T11:57:51.901Z,89.10
2023-03-28T12:00:56.789Z,85.40
2023-03-28T12:03:42.934Z,86.20
2023-03-28T12:06:22.349Z,87.70
2023-03-28T12:09:02.168Z,90.80
2023-03-28T12:12:16.172Z,89.50
2023-03-28T12:15:05.673Z,88.80
2023-03-28T12:17:42.414Z,84.80
2023-03-28T12:20:15.993Z,87.10
2023-03-28T12:22:42.494Z,84.30
2023-03-28T12:25:13.725Z,85.10
2023-03-28T12:27:59.587Z,82.90
2023-03-28T12:31:14.650Z,83.70
2023-03-28T12:33:47.942Z,77.80
2023-03-28T12:36:18.899Z,75.10
2023-03-28T12:38:55.656Z,78.30
2023-03-28T12:41:31.124Z,80.80
2023-03-28T12:44:05.957Z,84.60
2023-03-28T12:46:46.149Z,81.60
2023-03-28T12:49:41.782Z,82.60
2023-03-28T12:52:15.872Z,80.80
2023-03-28T12:55:01.402Z,76.90
2023-03-28T12:57:40.434Z,74.10
2023-03-28T13:00:37.224Z,70.00
2023-03-28T13:03:41.765Z,72.90
2023-03-28T13:06:26.818Z,66.00
2023-03-28T13:09:39.096Z,65.60
2023-03-28T13:12:31.230Z,67.80
2023-03-28T13:15:03.608Z,68.20
2023-03-28T13:17:32.752Z,69.50
2023-03-28T13:20:16.534Z,71.20
2023-03-28T13:22:58.392Z,72.60
2023-03-28T13:25:35.499Z,69.10
2023-03-28T13:28:29.695Z,71.60
2023-03-28T13:31:12.019Z,67.30
2023-03-28T13:33:53.899Z,70.40
2023-03-28T13:36:23.254Z,68.10
2023-03-28T13:39:07.126Z,67.10
2023-03-28T13:41:52.580Z,66.40
2023-03-28T13:44:24.608Z,69.50
2023-03-28T13:46:53.919Z,73.20
2023-03-28T13:49:22.190Z,68.50
2023-03-28T13:52:04.673Z,69.40
2023-03-28T13:54:32.084Z,70.00
2023-03-28T13:57:08.261Z,67.50
2023-03-28T13:59:38.116Z,68.10
2023-03-28T14:02:18.414Z,65.70
2023-03-28T14:04:55.642Z,66.90
2023-03-28T14:07:29.783Z,66.70
2023-03-28T14:09:57.467Z,67.00
2023-03-28T14:12:28.468Z,63.00
2023-03-28T14:14:58.050Z,61.70
2023-03-28T14:17:36.630Z,62.20
2023-03-28T14:20:06.364Z,61.80
2023-03-28T14:22:43.254Z,63.70
2023-03-28T14:25:16.395Z,66.50
2023-03-28T14:27:51.314Z,65.80
2023-03-28T14:30:18.255Z,62.90
2023-03-28T14:33:08.756Z,62.60
2023-03-28T14:35:37.674Z,65.00
2023-03-28T14:38:15.804Z,64.10
2023-03-28T14:40:45.043Z,64.50
2023-03-28T14:43:16.848Z,61.50
2023-03-28T14:45:50.287Z,59.40
2023-03-28T14:48:19.816Z,60.00
2023-03-28T14:50:48.847Z,61.60
2023-03-28T14:53:27.777Z,61.80
2023-03-28T14:56:00.818Z,63.70
2023-03-28T14:58:28.649Z,61.30
2023-03-28T15:00:59.253Z,60.60
2023-03-28T15:03:39.508Z,58.10
2023-03-28T15:06:07.952Z,57.80
2023-03-28T15:08:39.008Z,58.00
2023-03-28T15:11:23.563Z,58.50
2023-03-28T15:13:59.023Z,62.60
2023-03-28T15:16:27.040Z,61.20
2023-03-28T15:19:07.318Z,62.10
2023-03-28T15:21:39.147Z,60.60
2023-03-28T15:24:08.385Z,60.00
2023-03-28T15:26:46.540Z,57.60
2023-03-28T15:29:18.492Z,58.20
2023-03-28T15:31:46.179Z,60.60
2023-03-28T15:34:21.076Z,59.70
2023-03-28T15:36:56.003Z,58.40
2023-03-28T15:39:29.585Z,58.90
2023-03-28T15:42:09.034Z,59.20
2023-03-28T15:44:38.416Z,59.60
2023-03-28T15:47:12.912Z,62.50
2023-03-28T15:49:39.765Z,60.60
2023-03-28T15:52:15.095Z,61.80
2023-03-28T15:54:44.753Z,61.30
2023-03-28T15:57:14.429Z,60.30
2023-03-28T15:59:49.201Z,61.30
2023-03-28T16:02:20.767Z,61.50
2023-03-28T16:05:09.242Z,65.80
2023-03-28T16:07:48.148Z,67.30
2023-03-28T16:10:20.307Z,68.10
2023-03-28T16:12:47.443Z,68.90
2023-03-28T16:15:14.478Z,70.00
2023-03-28T16:17:43.109Z,73.20
2023-03-28T16:20:15.792Z,68.50
2023-03-28T16:22:43.167Z,68.40
2023-03-28T16:25:10.803Z,67.50
2023-03-28T16:27:37.988Z,69.70
2023-03-28T16:30:07.643Z,71.50
2023-03-28T16:32:34.378Z,70.80
2023-03-28T16:35:01.036Z,71.30
2023-03-28T16:37:27.978Z,72.10
2023-03-28T16:39:54.645Z,73.70
2023-03-28T16:42:21.400Z,73.90
2023-03-28T16:44:48.021Z,72.50
2023-03-28T16:47:15.526Z,75.50
2023-03-28T16:49:42.072Z,73.50
2023-03-28T16:52:08.647Z,74.80
2023-03-28T16:54:35.629Z,79.20
2023-03-28T16:57:02.457Z,76.30
2023-03-28T16:59:29.071Z,76.70
2023-03-28T17:01:55.913Z,78.10
2023-03-28T17:04:22.526Z,77.70
2023-03-28T17:06:49.145Z,78.40
2023-03-28T17:09:16.054Z,76.40
2023-03-28T17:11:42.887Z,77.00
2023-03-28T17:14:09.556Z,78.60
2023-03-28T17:16:40.021Z,79.10
2023-03-28T17:19:07.181Z,79.10
2023-03-28T17:21:34.883Z,78.60
2023-03-28T17:24:01.927Z,77.00
2023-03-28T17:26:28.657Z,76.50
2023-03-28T17:28:58.249Z,76.70
2023-03-28T17:31:25.557Z,78.30
2023-03-28T17:33:52.348Z,79.40
2023-03-28T17:36:26.083Z,78.80
2023-03-28T17:38:55.701Z,80.30
2023-03-28T17:41:23.028Z,80.30
2023-03-28T17:43:51.052Z,79.70
2023-03-28T17:46:17.905Z,80.80
2023-03-28T17:48:44.866Z,81.60
2023-03-28T17:51:11.879Z,82.90
2023-03-28T17:53:39.857Z,83.20
2023-03-28T17:56:07.096Z,81.90
2023-03-28T17:58:34.381Z,82.90
2023-03-28T18:01:01.267Z,82.90
2023-03-28T18:03:28.531Z,85.00
2023-03-28T18:06:00.559Z,84.20
2023-03-28T18:08:28.865Z,86.10
2023-03-28T18:11:00.829Z,85.70
2023-03-28T18:13:27.722Z,86.30
2023-03-28T18:15:54.340Z,86.30
2023-03-28T18:18:21.147Z,85.90
2023-03-28T18:20:49.214Z,87.60
2023-03-28T18:23:15.762Z,87.30
2023-03-28T18:25:42.340Z,87.50
2023-03-28T18:28:09.654Z,87.80
2023-03-28T18:30:36.932Z,89.80
2023-03-28T18:33:03.643Z,89.70
2023-03-28T18:35:30.537Z,90.30
2023-03-28T18:37:57.582Z,90.70
2023-03-28T18:40:24.509Z,90.90
2023-03-28T18:42:51.382Z,91.20
2023-03-28T18:45:18.170Z,91.20
2023-03-28T18:47:44.763Z,91.20
2023-03-28T18:50:11.594Z,91.10
2023-03-28T18:52:38.702Z,92.30
2023-03-28T18:55:05.797Z,92.20
2023-03-28T18:57:32.657Z,92.90
2023-03-28T19:00:00.420Z,93.30
2023-03-28T19:02:28.785Z,93.40
2023-03-28T19:04:56.100Z,93.80
2023-03-28T19:07:22.706Z,94.40
2023-03-28T19:09:49.275Z,93.80
2023-03-28T19:12:16.301Z,93.90
2023-03-28T19:14:42.868Z,94.30
2023-03-28T19:17:09.469Z,94.40
2023-03-28T19:19:37.421Z,94.70
2023-03-28T19:22:06.160Z,95.30
2023-03-28T19:24:33.155Z,95.00
2023-03-28T19:27:01.003Z,95.50
2023-03-28T19:29:29.964Z,95.50
2023-03-28T19:31:56.890Z,95.70
2023-03-28T19:34:23.415Z,96.20
2023-03-28T19:36:50.492Z,96.50
2023-03-28T19:39:17.125Z,97.10
2023-03-28T19:41:43.742Z,96.30
2023-03-28T19:44:10.259Z,96.20
2023-03-28T19:46:38.789Z,96.40
2023-03-28T19:49:06.615Z,96.90
2023-03-28T19:51:34.054Z,97.20
2023-03-28T19:54:00.666Z,96.90
2023-03-28T19:56:27.350Z,97.30
2023-03-28T19:58:54.164Z,96.80
2023-03-28T20:01:20.804Z,97.00
2023-03-28T20:03:52.031Z,96.60
2023-03-28T20:06:19.911Z,97.30
2023-03-28T20:08:46.610Z,97.30
2023-03-28T20:11:14.234Z,96.90
2023-03-28T20:13:41.066Z,98.00
2023-03-28T20:16:09.291Z,97.80
2023-03-28T20:18:36.953Z,98.10
2023-03-28T20:21:06.623Z,98.20
2023-03-28T20:23:33.659Z,97.90
2023-03-28T20:26:01.614Z,98.10
2023-03-28T20:28:32.435Z,98.20
2023-03-28T20:30:59.281Z,98.60
2023-03-28T20:33:26.150Z,97.90
2023-03-28T20:35:58.045Z,97.80
2023-03-28T20:38:26.021Z,98.50
2023-03-28T20:40:52.701Z,97.60
2023-03-28T20:43:26.499Z,96.90
2023-03-28T20:45:58.022Z,98.40
2023-03-28T20:48:34.049Z,98.80
2023-03-28T20:51:04.176Z,97.80
2023-03-28T20:53:32.900Z,97.70
2023-03-28T20:56:04.819Z,97.30
2023-03-28T20:58:32.963Z,97.90
2023-03-28T21:01:01.518Z,97.00
2023-03-28T21:03:46.500Z,97.20
2023-03-28T21:06:21.247Z,96.70
2023-03-28T21:08:49.930Z,96.80
2023-03-28T21:11:19.112Z,96.70
2023-03-28T21:13:45.876Z,97.20
2023-03-28T21:16:17.126Z,97.30
2023-03-28T21:18:45.344Z,96.40
2023-03-28T21:21:13.147Z,96.10
2023-03-28T21:23:40.906Z,96.80
2023-03-28T21:26:10.999Z,96.70
2023-03-28T21:28:38.354Z,96.80
2023-03-28T21:31:18.018Z,96.80
2023-03-28T21:33:45.534Z,97.60
2023-03-28T21:36:15.799Z,97.90
2023-03-28T21:38:43.473Z,98.50
2023-03-28T21:41:11.309Z,99.50
2023-03-28T21:43:38.601Z,99.90
2023-03-28T21:46:07.481Z,99.90
2023-03-28T21:48:39.058Z,99.90
2023-03-28T21:51:06.325Z,99.90
2023-03-28T21:53:36.634Z,99.90
2023-03-28T21:56:04.516Z,99.90
2023-03-28T21:58:33.225Z,99.90
2023-03-28T22:01:02.695Z,99.90
2023-03-28T22:03:30.371Z,99.90
2023-03-28T22:05:57.223Z,99.90
2023-03-28T22:08:23.836Z,99.90
2023-03-28T22:10:53.628Z,99.90
2023-03-28T22:13:23.566Z,99.90
2023-03-28T22:15:53.169Z,99.90
2023-03-28T22:18:20.436Z,99.90
2023-03-28T22:20:52.813Z,99.90
2023-03-28T22:23:19.440Z,99.90
2023-03-28T22:25:46.519Z,99.90
2023-03-28T22:28:13.833Z,99.90
2023-03-28T22:30:41.793Z,99.90
2023-03-28T22:33:10.885Z,99.90
2023-03-28T22:35:37.999Z,99.90
2023-03-28T22:38:05.008Z,99.90
2023-03-28T22:40:32.155Z,99.90
2023-03-28T22:42:58.831Z,99.90
2023-03-28T22:45:29.051Z,99.90
2023-03-28T22:48:00.022Z,99.90
2023-03-28T22:50:27.909Z,99.90
2023-03-28T22:52:55.010Z,99.90
2023-03-28T22:55:24.007Z,99.90
2023-03-28T22:57:52.302Z,99.90
2023-03-28T23:00:22.806Z,99.90
2023-03-28T23:02:51.590Z,99.90
2023-03-28T23:05:19.194Z,99.90
2023-03-28T23:07:45.881Z,99.90
2023-03-28T23:10:15.444Z,99.90
2023-03-28T23:12:42.980Z,99.90
2023-03-28T23:15:10.769Z,99.90
2023-03-28T23:17:37.518Z,99.90
2023-03-28T23:20:12.268Z,99.90
2023-03-28T23:22:40.363Z,99.90
2023-03-28T23:25:07.248Z,99.90
2023-03-28T23:27:33.908Z,99.90
2023-03-28T23:30:00.512Z,99.90
2023-03-28T23:32:27.166Z,99.90
2023-03-28T23:34:53.709Z,99.90
2023-03-28T23:37:20.353Z,99.90
2023-03-28T23:39:47.176Z,99.90
2023-03-28T23:42:13.684Z,99.90
2023-03-28T23:44:40.237Z,99.90
2023-03-28T23:47:07.023Z,99.90
2023-03-28T23:49:33.584Z,99.90
2023-03-28T23:52:00.395Z,99.90
2023-03-28T23:54:29.768Z,99.90
2023-03-28T23:56:57.416Z,99.90
2023-03-28T23:59:25.135Z,99.90
